sensor_id;sensor_type;location;lat;lon;timestamp;P1;durP1;ratioP1;P2;durP2;ratioP2
6564;SDS011;3316;44.118;27.258;2022-12-05T00:00:52;11.97;;;6.33;;
6564;SDS011;3316;44.118;27.258;2022-12-05T00:03:18;9.27;;;5.87;;
6564;SDS011;3316;44.118;27.258;2022-12-05T00:05:44;8.47;;;6.77;;
6564;SDS011;3316;44.118;27.258;2022-12-05T00:08:10;11.10;;;6.93;;
6564;SDS011;3316;44.118;27.258;2022-12-05T00:10:35;7.50;;;5.53;;
6564;SDS011;3316;44.118;27.258;2022-12-05T00:13:01;13.50;;;8.13;;
6564;SDS011;3316;44.118;27.258;2022-12-05T00:15:27;12.07;;;9.23;;
6564;SDS011;3316;44.118;27.258;2022-12-05T00:17:52;11.13;;;6.10;;
6564;SDS011;3316;44.118;27.258;2022-12-05T00:20:18;8.97;;;5.87;;
6564;SDS011;3316;44.118;27.258;2022-12-05T00:22:44;13.47;;;7.97;;
6564;SDS011;3316;44.118;27.258;2022-12-05T00:25:10;10.80;;;6.37;;
6564;SDS011;3316;44.118;27.258;2022-12-05T00:27:35;22.43;;;13.40;;
6564;SDS011;3316;44.118;27.258;2022-12-05T00:30:01;10.53;;;6.23;;
6564;SDS011;3316;44.118;27.258;2022-12-05T00:32:29;11.23;;;7.70;;
6564;SDS011;3316;44.118;27.258;2022-12-05T00:34:55;12.73;;;7.03;;
6564;SDS011;3316;44.118;27.258;2022-12-05T00:37:20;8.97;;;6.43;;
6564;SDS011;3316;44.118;27.258;2022-12-05T00:39:47;13.47;;;8.37;;
6564;SDS011;3316;44.118;27.258;2022-12-05T00:42:12;13.67;;;8.47;;
6564;SDS011;3316;44.118;27.258;2022-12-05T00:44:38;10.77;;;7.07;;
6564;SDS011;3316;44.118;27.258;2022-12-05T00:47:03;11.77;;;7.90;;
6564;SDS011;3316;44.118;27.258;2022-12-05T00:49:29;11.17;;;6.10;;
6564;SDS011;3316;44.118;27.258;2022-12-05T00:51:54;9.27;;;6.40;;
6564;SDS011;3316;44.118;27.258;2022-12-05T00:54:19;8.60;;;6.03;;
6564;SDS011;3316;44.118;27.258;2022-12-05T00:56:45;8.50;;;5.80;;
6564;SDS011;3316;44.118;27.258;2022-12-05T00:59:17;10.63;;;6.50;;
6564;SDS011;3316;44.118;27.258;2022-12-05T01:01:44;11.47;;;6.37;;
6564;SDS011;3316;44.118;27.258;2022-12-05T01:04:13;8.27;;;6.17;;
6564;SDS011;3316;44.118;27.258;2022-12-05T01:06:43;10.77;;;6.97;;
6564;SDS011;3316;44.118;27.258;2022-12-05T01:09:13;9.70;;;6.73;;
6564;SDS011;3316;44.118;27.258;2022-12-05T01:11:40;9.03;;;6.93;;
6564;SDS011;3316;44.118;27.258;2022-12-05T01:14:07;7.77;;;6.13;;
6564;SDS011;3316;44.118;27.258;2022-12-05T01:16:34;10.67;;;6.57;;
6564;SDS011;3316;44.118;27.258;2022-12-05T01:19:03;8.73;;;6.70;;
6564;SDS011;3316;44.118;27.258;2022-12-05T01:21:31;9.83;;;6.30;;
6564;SDS011;3316;44.118;27.258;2022-12-05T01:23:57;9.60;;;6.87;;
6564;SDS011;3316;44.118;27.258;2022-12-05T01:26:22;11.70;;;7.10;;
6564;SDS011;3316;44.118;27.258;2022-12-05T01:28:48;11.20;;;6.77;;
6564;SDS011;3316;44.118;27.258;2022-12-05T01:33:47;10.07;;;5.77;;
6564;SDS011;3316;44.118;27.258;2022-12-05T01:36:13;8.10;;;5.87;;
6564;SDS011;3316;44.118;27.258;2022-12-05T01:38:39;9.77;;;6.17;;
6564;SDS011;3316;44.118;27.258;2022-12-05T01:41:06;11.03;;;6.70;;
6564;SDS011;3316;44.118;27.258;2022-12-05T01:43:33;8.40;;;5.77;;
6564;SDS011;3316;44.118;27.258;2022-12-05T01:46:27;9.13;;;6.03;;
6564;SDS011;3316;44.118;27.258;2022-12-05T01:49:05;8.67;;;5.77;;
6564;SDS011;3316;44.118;27.258;2022-12-05T01:51:34;8.30;;;5.30;;
6564;SDS011;3316;44.118;27.258;2022-12-05T01:54:02;6.97;;;5.30;;
6564;SDS011;3316;44.118;27.258;2022-12-05T01:56:30;9.30;;;6.17;;
6564;SDS011;3316;44.118;27.258;2022-12-05T01:58:57;11.17;;;6.10;;
6564;SDS011;3316;44.118;27.258;2022-12-05T02:01:23;8.70;;;6.03;;
6564;SDS011;3316;44.118;27.258;2022-12-05T02:03:49;10.20;;;5.63;;
6564;SDS011;3316;44.118;27.258;2022-12-05T02:06:16;10.03;;;5.50;;
6564;SDS011;3316;44.118;27.258;2022-12-05T02:08:42;7.63;;;5.77;;
6564;SDS011;3316;44.118;27.258;2022-12-05T02:11:09;9.40;;;5.90;;
6564;SDS011;3316;44.118;27.258;2022-12-05T02:21:32;9.93;;;6.87;;
6564;SDS011;3316;44.118;27.258;2022-12-05T02:32:29;10.97;;;7.07;;
6564;SDS011;3316;44.118;27.258;2022-12-05T02:35:11;11.90;;;7.40;;
6564;SDS011;3316;44.118;27.258;2022-12-05T02:40:25;9.80;;;6.37;;
6564;SDS011;3316;44.118;27.258;2022-12-05T02:43:00;10.63;;;6.73;;
6564;SDS011;3316;44.118;27.258;2022-12-05T02:45:34;14.93;;;7.17;;
6564;SDS011;3316;44.118;27.258;2022-12-05T02:48:02;13.83;;;8.30;;
6564;SDS011;3316;44.118;27.258;2022-12-05T02:50:31;14.63;;;9.07;;
6564;SDS011;3316;44.118;27.258;2022-12-05T02:53:01;12.67;;;8.43;;
6564;SDS011;3316;44.118;27.258;2022-12-05T02:55:31;12.00;;;7.70;;
6564;SDS011;3316;44.118;27.258;2022-12-05T02:57:59;13.93;;;7.33;;
6564;SDS011;3316;44.118;27.258;2022-12-05T03:00:28;13.13;;;7.50;;
6564;SDS011;3316;44.118;27.258;2022-12-05T03:02:55;10.37;;;7.27;;
6564;SDS011;3316;44.118;27.258;2022-12-05T03:08:00;11.13;;;7.00;;
6564;SDS011;3316;44.118;27.258;2022-12-05T03:10:28;12.60;;;7.20;;
6564;SDS011;3316;44.118;27.258;2022-12-05T03:12:57;11.07;;;8.10;;
6564;SDS011;3316;44.118;27.258;2022-12-05T03:15:30;10.37;;;7.80;;
6564;SDS011;3316;44.118;27.258;2022-12-05T03:20:44;11.33;;;8.07;;
6564;SDS011;3316;44.118;27.258;2022-12-05T03:23:20;9.73;;;7.33;;
6564;SDS011;3316;44.118;27.258;2022-12-05T03:31:44;11.73;;;7.17;;
6564;SDS011;3316;44.118;27.258;2022-12-05T03:37:32;14.87;;;8.13;;
6564;SDS011;3316;44.118;27.258;2022-12-05T03:42:56;12.07;;;6.93;;
6564;SDS011;3316;44.118;27.258;2022-12-05T03:45:30;12.50;;;7.20;;
6564;SDS011;3316;44.118;27.258;2022-12-05T03:50:38;13.50;;;8.00;;
6564;SDS011;3316;44.118;27.258;2022-12-05T03:53:15;14.70;;;8.37;;
6564;SDS011;3316;44.118;27.258;2022-12-05T03:55:48;16.80;;;8.03;;
6564;SDS011;3316;44.118;27.258;2022-12-05T03:59:10;15.60;;;9.73;;
6564;SDS011;3316;44.118;27.258;2022-12-05T04:01:12;13.03;;;8.13;;
6564;SDS011;3316;44.118;27.258;2022-12-05T04:03:43;12.00;;;8.20;;
6564;SDS011;3316;44.118;27.258;2022-12-05T04:08:46;14.50;;;9.03;;
6564;SDS011;3316;44.118;27.258;2022-12-05T04:11:18;16.47;;;10.23;;
6564;SDS011;3316;44.118;27.258;2022-12-05T04:13:54;20.00;;;12.80;;
6564;SDS011;3316;44.118;27.258;2022-12-05T04:17:03;17.67;;;11.90;;
6564;SDS011;3316;44.118;27.258;2022-12-05T04:19:38;20.03;;;11.97;;
6564;SDS011;3316;44.118;27.258;2022-12-05T04:22:23;15.97;;;10.77;;
6564;SDS011;3316;44.118;27.258;2022-12-05T04:24:50;13.77;;;9.23;;
6564;SDS011;3316;44.118;27.258;2022-12-05T04:27:51;16.57;;;10.67;;
6564;SDS011;3316;44.118;27.258;2022-12-05T04:30:20;18.30;;;10.53;;
6564;SDS011;3316;44.118;27.258;2022-12-05T04:33:02;18.13;;;11.57;;
6564;SDS011;3316;44.118;27.258;2022-12-05T04:35:40;17.90;;;11.03;;
6564;SDS011;3316;44.118;27.258;2022-12-05T04:41:12;20.97;;;13.57;;
6564;SDS011;3316;44.118;27.258;2022-12-05T04:43:42;24.13;;;13.90;;
6564;SDS011;3316;44.118;27.258;2022-12-05T04:46:11;24.07;;;13.27;;
6564;SDS011;3316;44.118;27.258;2022-12-05T04:48:41;27.10;;;14.10;;
6564;SDS011;3316;44.118;27.258;2022-12-05T04:51:11;24.10;;;13.37;;
6564;SDS011;3316;44.118;27.258;2022-12-05T04:53:41;27.57;;;15.67;;
6564;SDS011;3316;44.118;27.258;2022-12-05T04:56:09;33.87;;;17.17;;
6564;SDS011;3316;44.118;27.258;2022-12-05T04:58:40;30.10;;;16.77;;
6564;SDS011;3316;44.118;27.258;2022-12-05T05:03:42;30.63;;;17.40;;
6564;SDS011;3316;44.118;27.258;2022-12-05T05:06:13;38.17;;;18.50;;
6564;SDS011;3316;44.118;27.258;2022-12-05T05:08:52;36.73;;;18.83;;
6564;SDS011;3316;44.118;27.258;2022-12-05T05:11:20;40.27;;;20.23;;
6564;SDS011;3316;44.118;27.258;2022-12-05T05:13:50;29.30;;;15.63;;
6564;SDS011;3316;44.118;27.258;2022-12-05T05:16:17;29.70;;;16.87;;
6564;SDS011;3316;44.118;27.258;2022-12-05T05:18:47;34.33;;;20.10;;
6564;SDS011;3316;44.118;27.258;2022-12-05T05:21:15;32.33;;;18.23;;
6564;SDS011;3316;44.118;27.258;2022-12-05T05:23:43;36.00;;;20.23;;
6564;SDS011;3316;44.118;27.258;2022-12-05T05:26:08;37.67;;;21.17;;
6564;SDS011;3316;44.118;27.258;2022-12-05T05:28:33;30.07;;;15.73;;
6564;SDS011;3316;44.118;27.258;2022-12-05T05:31:02;34.63;;;19.13;;
6564;SDS011;3316;44.118;27.258;2022-12-05T05:33:28;37.33;;;21.77;;
6564;SDS011;3316;44.118;27.258;2022-12-05T05:35:54;25.80;;;16.47;;
6564;SDS011;3316;44.118;27.258;2022-12-05T05:38:19;20.97;;;12.50;;
6564;SDS011;3316;44.118;27.258;2022-12-05T05:40:45;21.87;;;12.43;;
6564;SDS011;3316;44.118;27.258;2022-12-05T05:43:10;18.60;;;12.27;;
6564;SDS011;3316;44.118;27.258;2022-12-05T05:45:36;23.93;;;14.27;;
6564;SDS011;3316;44.118;27.258;2022-12-05T05:48:01;21.47;;;11.60;;
6564;SDS011;3316;44.118;27.258;2022-12-05T05:50:27;22.07;;;12.60;;
6564;SDS011;3316;44.118;27.258;2022-12-05T05:52:52;20.50;;;12.50;;
6564;SDS011;3316;44.118;27.258;2022-12-05T05:55:18;26.83;;;15.63;;
6564;SDS011;3316;44.118;27.258;2022-12-05T05:57:44;30.33;;;18.70;;
6564;SDS011;3316;44.118;27.258;2022-12-05T06:00:10;34.17;;;19.60;;
6564;SDS011;3316;44.118;27.258;2022-12-05T06:02:36;36.23;;;20.50;;
6564;SDS011;3316;44.118;27.258;2022-12-05T06:05:01;37.27;;;20.43;;
6564;SDS011;3316;44.118;27.258;2022-12-05T06:07:28;29.07;;;15.43;;
6564;SDS011;3316;44.118;27.258;2022-12-05T06:09:53;32.40;;;17.33;;
6564;SDS011;3316;44.118;27.258;2022-12-05T06:12:19;34.30;;;19.43;;
6564;SDS011;3316;44.118;27.258;2022-12-05T06:14:47;37.20;;;19.77;;
6564;SDS011;3316;44.118;27.258;2022-12-05T06:17:14;41.30;;;21.17;;
6564;SDS011;3316;44.118;27.258;2022-12-05T06:19:39;42.50;;;24.37;;
6564;SDS011;3316;44.118;27.258;2022-12-05T06:22:05;44.37;;;22.83;;
6564;SDS011;3316;44.118;27.258;2022-12-05T06:24:30;35.90;;;20.17;;
6564;SDS011;3316;44.118;27.258;2022-12-05T06:26:55;44.87;;;25.13;;
6564;SDS011;3316;44.118;27.258;2022-12-05T06:29:21;61.53;;;33.43;;
6564;SDS011;3316;44.118;27.258;2022-12-05T06:31:47;43.77;;;21.20;;
6564;SDS011;3316;44.118;27.258;2022-12-05T06:34:12;45.77;;;23.30;;
6564;SDS011;3316;44.118;27.258;2022-12-05T06:36:37;38.03;;;21.13;;
6564;SDS011;3316;44.118;27.258;2022-12-05T06:39:03;43.00;;;23.40;;
6564;SDS011;3316;44.118;27.258;2022-12-05T06:41:29;34.40;;;17.37;;
6564;SDS011;3316;44.118;27.258;2022-12-05T06:43:55;23.93;;;13.30;;
6564;SDS011;3316;44.118;27.258;2022-12-05T06:46:22;25.50;;;13.87;;
6564;SDS011;3316;44.118;27.258;2022-12-05T06:48:51;23.30;;;13.87;;
6564;SDS011;3316;44.118;27.258;2022-12-05T06:51:17;28.13;;;13.37;;
6564;SDS011;3316;44.118;27.258;2022-12-05T06:53:43;26.63;;;15.67;;
6564;SDS011;3316;44.118;27.258;2022-12-05T06:56:10;18.43;;;12.47;;
6564;SDS011;3316;44.118;27.258;2022-12-05T06:58:39;19.87;;;12.43;;
6564;SDS011;3316;44.118;27.258;2022-12-05T07:01:08;21.70;;;12.87;;
6564;SDS011;3316;44.118;27.258;2022-12-05T07:03:54;30.27;;;14.57;;
6564;SDS011;3316;44.118;27.258;2022-12-05T07:06:19;23.67;;;12.37;;
6564;SDS011;3316;44.118;27.258;2022-12-05T07:08:44;22.63;;;13.33;;
6564;SDS011;3316;44.118;27.258;2022-12-05T07:11:11;22.73;;;13.53;;
6564;SDS011;3316;44.118;27.258;2022-12-05T07:13:36;27.17;;;16.10;;
6564;SDS011;3316;44.118;27.258;2022-12-05T07:16:02;30.83;;;18.20;;
6564;SDS011;3316;44.118;27.258;2022-12-05T07:18:30;27.43;;;16.07;;
6564;SDS011;3316;44.118;27.258;2022-12-05T07:20:57;29.27;;;16.43;;
6564;SDS011;3316;44.118;27.258;2022-12-05T07:23:25;30.67;;;17.40;;
6564;SDS011;3316;44.118;27.258;2022-12-05T07:25:51;23.57;;;13.57;;
6564;SDS011;3316;44.118;27.258;2022-12-05T07:28:16;40.50;;;22.60;;
6564;SDS011;3316;44.118;27.258;2022-12-05T07:30:42;30.90;;;17.60;;
6564;SDS011;3316;44.118;27.258;2022-12-05T07:33:07;30.53;;;18.93;;
6564;SDS011;3316;44.118;27.258;2022-12-05T07:35:32;31.67;;;19.23;;
6564;SDS011;3316;44.118;27.258;2022-12-05T07:37:58;23.57;;;12.50;;
6564;SDS011;3316;44.118;27.258;2022-12-05T07:40:23;25.63;;;15.23;;
6564;SDS011;3316;44.118;27.258;2022-12-05T07:42:49;13.63;;;9.50;;
6564;SDS011;3316;44.118;27.258;2022-12-05T07:45:17;19.73;;;12.10;;
6564;SDS011;3316;44.118;27.258;2022-12-05T07:47:43;53.10;;;30.67;;
6564;SDS011;3316;44.118;27.258;2022-12-05T07:50:08;24.73;;;15.67;;
6564;SDS011;3316;44.118;27.258;2022-12-05T07:52:34;22.20;;;11.40;;
6564;SDS011;3316;44.118;27.258;2022-12-05T07:55:00;19.37;;;12.00;;
6564;SDS011;3316;44.118;27.258;2022-12-05T07:57:27;18.80;;;11.10;;
6564;SDS011;3316;44.118;27.258;2022-12-05T07:59:54;15.03;;;9.17;;
6564;SDS011;3316;44.118;27.258;2022-12-05T08:02:20;18.03;;;11.17;;
6564;SDS011;3316;44.118;27.258;2022-12-05T08:04:45;12.57;;;8.53;;
6564;SDS011;3316;44.118;27.258;2022-12-05T08:07:11;20.13;;;11.97;;
6564;SDS011;3316;44.118;27.258;2022-12-05T08:09:36;20.40;;;11.10;;
6564;SDS011;3316;44.118;27.258;2022-12-05T08:12:02;19.00;;;11.90;;
6564;SDS011;3316;44.118;27.258;2022-12-05T08:14:27;25.90;;;15.17;;
6564;SDS011;3316;44.118;27.258;2022-12-05T08:16:53;26.27;;;14.47;;
6564;SDS011;3316;44.118;27.258;2022-12-05T08:19:18;36.53;;;19.27;;
6564;SDS011;3316;44.118;27.258;2022-12-05T08:21:44;23.10;;;13.17;;
6564;SDS011;3316;44.118;27.258;2022-12-05T08:24:09;26.77;;;15.87;;
6564;SDS011;3316;44.118;27.258;2022-12-05T08:26:35;13.73;;;9.27;;
6564;SDS011;3316;44.118;27.258;2022-12-05T08:29:04;25.20;;;15.13;;
6564;SDS011;3316;44.118;27.258;2022-12-05T08:31:32;31.97;;;17.43;;
6564;SDS011;3316;44.118;27.258;2022-12-05T08:34:00;66.47;;;23.63;;
6564;SDS011;3316;44.118;27.258;2022-12-05T08:36:26;50.60;;;24.30;;
6564;SDS011;3316;44.118;27.258;2022-12-05T08:38:57;84.07;;;37.97;;
6564;SDS011;3316;44.118;27.258;2022-12-05T08:41:24;33.93;;;16.40;;
6564;SDS011;3316;44.118;27.258;2022-12-05T08:43:58;82.97;;;35.37;;
6564;SDS011;3316;44.118;27.258;2022-12-05T08:46:27;40.57;;;23.00;;
6564;SDS011;3316;44.118;27.258;2022-12-05T08:48:53;46.40;;;24.27;;
6564;SDS011;3316;44.118;27.258;2022-12-05T08:51:19;39.77;;;22.40;;
6564;SDS011;3316;44.118;27.258;2022-12-05T08:53:45;30.33;;;18.60;;
6564;SDS011;3316;44.118;27.258;2022-12-05T08:56:11;29.67;;;19.63;;
6564;SDS011;3316;44.118;27.258;2022-12-05T08:58:36;15.73;;;10.50;;
6564;SDS011;3316;44.118;27.258;2022-12-05T09:01:03;12.37;;;7.57;;
6564;SDS011;3316;44.118;27.258;2022-12-05T09:03:28;20.43;;;12.20;;
6564;SDS011;3316;44.118;27.258;2022-12-05T09:05:54;26.40;;;16.10;;
6564;SDS011;3316;44.118;27.258;2022-12-05T09:08:19;37.13;;;21.77;;
6564;SDS011;3316;44.118;27.258;2022-12-05T09:10:45;19.83;;;12.43;;
6564;SDS011;3316;44.118;27.258;2022-12-05T09:13:10;17.63;;;10.63;;
6564;SDS011;3316;44.118;27.258;2022-12-05T09:15:38;21.53;;;11.83;;
6564;SDS011;3316;44.118;27.258;2022-12-05T09:18:03;18.13;;;11.53;;
6564;SDS011;3316;44.118;27.258;2022-12-05T09:20:28;23.87;;;11.90;;
6564;SDS011;3316;44.118;27.258;2022-12-05T09:22:54;13.17;;;8.17;;
6564;SDS011;3316;44.118;27.258;2022-12-05T09:25:19;18.73;;;11.47;;
6564;SDS011;3316;44.118;27.258;2022-12-05T09:27:45;14.03;;;8.50;;
6564;SDS011;3316;44.118;27.258;2022-12-05T09:30:11;10.67;;;8.03;;
6564;SDS011;3316;44.118;27.258;2022-12-05T09:32:36;19.40;;;10.37;;
6564;SDS011;3316;44.118;27.258;2022-12-05T09:35:02;14.60;;;9.17;;
6564;SDS011;3316;44.118;27.258;2022-12-05T09:37:27;13.13;;;7.83;;
6564;SDS011;3316;44.118;27.258;2022-12-05T09:39:53;9.97;;;7.93;;
6564;SDS011;3316;44.118;27.258;2022-12-05T09:47:28;29.50;;;12.23;;
6564;SDS011;3316;44.118;27.258;2022-12-05T09:52:43;54.07;;;21.13;;
6564;SDS011;3316;44.118;27.258;2022-12-05T09:55:19;18.67;;;10.57;;
6564;SDS011;3316;44.118;27.258;2022-12-05T09:57:52;38.40;;;17.97;;
6564;SDS011;3316;44.118;27.258;2022-12-05T10:00:20;21.93;;;11.60;;
6564;SDS011;3316;44.118;27.258;2022-12-05T10:03:11;27.00;;;16.40;;
6564;SDS011;3316;44.118;27.258;2022-12-05T10:08:18;22.67;;;13.97;;
6564;SDS011;3316;44.118;27.258;2022-12-05T10:11:01;21.30;;;13.70;;
6564;SDS011;3316;44.118;27.258;2022-12-05T10:16:10;13.37;;;9.77;;
6564;SDS011;3316;44.118;27.258;2022-12-05T10:18:44;19.17;;;12.80;;
6564;SDS011;3316;44.118;27.258;2022-12-05T10:21:20;30.10;;;17.63;;
6564;SDS011;3316;44.118;27.258;2022-12-05T10:23:57;14.00;;;8.23;;
6564;SDS011;3316;44.118;27.258;2022-12-05T10:26:34;10.63;;;7.40;;
6564;SDS011;3316;44.118;27.258;2022-12-05T10:31:49;13.93;;;7.60;;
6564;SDS011;3316;44.118;27.258;2022-12-05T10:37:12;11.87;;;7.50;;
6564;SDS011;3316;44.118;27.258;2022-12-05T10:39:41;11.37;;;7.33;;
6564;SDS011;3316;44.118;27.258;2022-12-05T10:42:17;18.43;;;8.43;;
6564;SDS011;3316;44.118;27.258;2022-12-05T10:44:56;19.17;;;12.10;;
6564;SDS011;3316;44.118;27.258;2022-12-05T10:47:26;18.90;;;12.10;;
6564;SDS011;3316;44.118;27.258;2022-12-05T10:49:53;11.77;;;7.30;;
6564;SDS011;3316;44.118;27.258;2022-12-05T10:52:22;21.23;;;12.80;;
6564;SDS011;3316;44.118;27.258;2022-12-05T10:54:50;16.27;;;10.50;;
6564;SDS011;3316;44.118;27.258;2022-12-05T10:57:26;17.97;;;10.80;;
6564;SDS011;3316;44.118;27.258;2022-12-05T10:59:54;12.83;;;8.83;;
6564;SDS011;3316;44.118;27.258;2022-12-05T11:02:27;14.17;;;9.53;;
6564;SDS011;3316;44.118;27.258;2022-12-05T11:04:55;16.17;;;9.97;;
6564;SDS011;3316;44.118;27.258;2022-12-05T11:07:32;16.40;;;9.47;;
6564;SDS011;3316;44.118;27.258;2022-12-05T11:10:19;13.00;;;7.90;;
6564;SDS011;3316;44.118;27.258;2022-12-05T11:12:47;14.53;;;9.80;;
6564;SDS011;3316;44.118;27.258;2022-12-05T11:17:46;11.13;;;6.90;;
6564;SDS011;3316;44.118;27.258;2022-12-05T11:22:42;12.17;;;8.47;;
6564;SDS011;3316;44.118;27.258;2022-12-05T11:28:21;22.27;;;12.23;;
6564;SDS011;3316;44.118;27.258;2022-12-05T11:33:23;18.27;;;10.83;;
6564;SDS011;3316;44.118;27.258;2022-12-05T11:35:52;29.50;;;17.43;;
6564;SDS011;3316;44.118;27.258;2022-12-05T11:38:20;21.50;;;14.53;;
6564;SDS011;3316;44.118;27.258;2022-12-05T11:48:19;16.73;;;10.47;;
6564;SDS011;3316;44.118;27.258;2022-12-05T11:55:02;17.60;;;10.50;;
6564;SDS011;3316;44.118;27.258;2022-12-05T12:03:11;27.70;;;16.13;;
6564;SDS011;3316;44.118;27.258;2022-12-05T12:06:05;15.77;;;9.17;;
6564;SDS011;3316;44.118;27.258;2022-12-05T12:08:46;16.47;;;9.90;;
6564;SDS011;3316;44.118;27.258;2022-12-05T12:25:44;26.40;;;16.10;;
6564;SDS011;3316;44.118;27.258;2022-12-05T12:31:51;14.93;;;8.60;;
6564;SDS011;3316;44.118;27.258;2022-12-05T12:37:04;21.07;;;11.47;;
6564;SDS011;3316;44.118;27.258;2022-12-05T12:39:50;22.73;;;12.47;;
6564;SDS011;3316;44.118;27.258;2022-12-05T12:42:23;24.80;;;16.10;;
6564;SDS011;3316;44.118;27.258;2022-12-05T12:50:33;19.77;;;12.07;;
6564;SDS011;3316;44.118;27.258;2022-12-05T12:55:35;16.47;;;10.40;;
6564;SDS011;3316;44.118;27.258;2022-12-05T13:01:15;10.57;;;8.00;;
6564;SDS011;3316;44.118;27.258;2022-12-05T13:03:59;16.30;;;8.47;;
6564;SDS011;3316;44.118;27.258;2022-12-05T13:09:37;20.37;;;10.50;;
6564;SDS011;3316;44.118;27.258;2022-12-05T13:12:09;21.30;;;13.17;;
6564;SDS011;3316;44.118;27.258;2022-12-05T13:14:38;21.40;;;12.40;;
6564;SDS011;3316;44.118;27.258;2022-12-05T13:17:14;26.73;;;15.50;;
6564;SDS011;3316;44.118;27.258;2022-12-05T13:19:45;24.57;;;12.93;;
6564;SDS011;3316;44.118;27.258;2022-12-05T13:22:13;27.50;;;15.43;;
6564;SDS011;3316;44.118;27.258;2022-12-05T13:24:42;30.23;;;16.30;;
6564;SDS011;3316;44.118;27.258;2022-12-05T13:27:08;29.97;;;17.93;;
6564;SDS011;3316;44.118;27.258;2022-12-05T13:29:41;31.43;;;19.63;;
6564;SDS011;3316;44.118;27.258;2022-12-05T13:35:39;27.97;;;17.67;;
6564;SDS011;3316;44.118;27.258;2022-12-05T13:38:26;28.23;;;18.77;;
6564;SDS011;3316;44.118;27.258;2022-12-05T13:41:11;29.73;;;20.33;;
6564;SDS011;3316;44.118;27.258;2022-12-05T13:43:56;36.47;;;22.87;;
6564;SDS011;3316;44.118;27.258;2022-12-05T13:46:26;44.70;;;25.53;;
6564;SDS011;3316;44.118;27.258;2022-12-05T13:49:40;48.73;;;28.50;;
6564;SDS011;3316;44.118;27.258;2022-12-05T13:52:14;35.33;;;20.67;;
6564;SDS011;3316;44.118;27.258;2022-12-05T13:54:53;33.47;;;20.97;;
6564;SDS011;3316;44.118;27.258;2022-12-05T14:05:53;46.07;;;25.00;;
6564;SDS011;3316;44.118;27.258;2022-12-05T14:30:16;27.97;;;17.50;;
6564;SDS011;3316;44.118;27.258;2022-12-05T14:32:46;34.37;;;19.70;;
6564;SDS011;3316;44.118;27.258;2022-12-05T14:40:26;39.70;;;22.47;;
6564;SDS011;3316;44.118;27.258;2022-12-05T14:42:55;42.43;;;21.13;;
6564;SDS011;3316;44.118;27.258;2022-12-05T14:45:39;36.27;;;22.03;;
6564;SDS011;3316;44.118;27.258;2022-12-05T14:50:44;36.77;;;22.43;;
6564;SDS011;3316;44.118;27.258;2022-12-05T14:55:44;39.83;;;23.93;;
6564;SDS011;3316;44.118;27.258;2022-12-05T15:00:57;42.57;;;23.50;;
6564;SDS011;3316;44.118;27.258;2022-12-05T15:03:30;40.97;;;23.73;;
6564;SDS011;3316;44.118;27.258;2022-12-05T15:06:00;51.70;;;27.57;;
6564;SDS011;3316;44.118;27.258;2022-12-05T15:08:29;47.37;;;26.23;;
6564;SDS011;3316;44.118;27.258;2022-12-05T15:11:03;46.10;;;26.13;;
6564;SDS011;3316;44.118;27.258;2022-12-05T15:13:29;54.83;;;31.07;;
6564;SDS011;3316;44.118;27.258;2022-12-05T15:16:05;51.27;;;28.07;;
6564;SDS011;3316;44.118;27.258;2022-12-05T15:21:20;54.07;;;31.63;;
6564;SDS011;3316;44.118;27.258;2022-12-05T15:23:54;50.57;;;29.50;;
6564;SDS011;3316;44.118;27.258;2022-12-05T15:36:59;94.13;;;46.70;;
6564;SDS011;3316;44.118;27.258;2022-12-05T15:42:17;53.30;;;29.30;;
6564;SDS011;3316;44.118;27.258;2022-12-05T15:44:43;53.87;;;30.60;;
6564;SDS011;3316;44.118;27.258;2022-12-05T15:47:18;38.67;;;24.57;;
6564;SDS011;3316;44.118;27.258;2022-12-05T15:49:48;35.07;;;21.53;;
6564;SDS011;3316;44.118;27.258;2022-12-05T15:52:22;45.80;;;26.43;;
6564;SDS011;3316;44.118;27.258;2022-12-05T15:54:49;50.20;;;30.77;;
6564;SDS011;3316;44.118;27.258;2022-12-05T15:57:18;43.90;;;24.00;;
6564;SDS011;3316;44.118;27.258;2022-12-05T15:59:59;52.37;;;31.07;;
6564;SDS011;3316;44.118;27.258;2022-12-05T16:02:45;41.23;;;24.70;;
6564;SDS011;3316;44.118;27.258;2022-12-05T16:05:23;41.87;;;23.30;;
6564;SDS011;3316;44.118;27.258;2022-12-05T16:07:54;52.97;;;31.00;;
6564;SDS011;3316;44.118;27.258;2022-12-05T16:10:20;58.47;;;29.83;;
6564;SDS011;3316;44.118;27.258;2022-12-05T16:12:48;44.07;;;25.07;;
6564;SDS011;3316;44.118;27.258;2022-12-05T16:15:17;52.03;;;27.03;;
6564;SDS011;3316;44.118;27.258;2022-12-05T16:17:45;56.73;;;30.13;;
6564;SDS011;3316;44.118;27.258;2022-12-05T16:22:44;46.53;;;25.17;;
6564;SDS011;3316;44.118;27.258;2022-12-05T16:25:16;61.77;;;33.43;;
6564;SDS011;3316;44.118;27.258;2022-12-05T16:30:28;60.57;;;35.97;;
6564;SDS011;3316;44.118;27.258;2022-12-05T16:33:05;66.70;;;37.07;;
6564;SDS011;3316;44.118;27.258;2022-12-05T16:35:46;68.40;;;39.70;;
6564;SDS011;3316;44.118;27.258;2022-12-05T16:38:25;36.60;;;22.50;;
6564;SDS011;3316;44.118;27.258;2022-12-05T16:43:24;53.57;;;32.43;;
6564;SDS011;3316;44.118;27.258;2022-12-05T16:45:51;43.87;;;26.20;;
6564;SDS011;3316;44.118;27.258;2022-12-05T16:48:19;51.33;;;28.73;;
6564;SDS011;3316;44.118;27.258;2022-12-05T16:50:47;68.47;;;39.87;;
6564;SDS011;3316;44.118;27.258;2022-12-05T16:53:27;42.20;;;26.50;;
6564;SDS011;3316;44.118;27.258;2022-12-05T16:55:56;63.20;;;31.83;;
6564;SDS011;3316;44.118;27.258;2022-12-05T16:58:23;46.37;;;24.53;;
6564;SDS011;3316;44.118;27.258;2022-12-05T17:00:50;52.10;;;30.40;;
6564;SDS011;3316;44.118;27.258;2022-12-05T17:03:16;166.03;;;65.40;;
6564;SDS011;3316;44.118;27.258;2022-12-05T17:05:42;61.63;;;35.73;;
6564;SDS011;3316;44.118;27.258;2022-12-05T17:08:09;48.57;;;26.23;;
6564;SDS011;3316;44.118;27.258;2022-12-05T17:10:34;46.57;;;28.37;;
6564;SDS011;3316;44.118;27.258;2022-12-05T17:13:00;45.07;;;28.40;;
6564;SDS011;3316;44.118;27.258;2022-12-05T17:15:27;53.23;;;30.77;;
6564;SDS011;3316;44.118;27.258;2022-12-05T17:17:53;68.67;;;37.73;;
6564;SDS011;3316;44.118;27.258;2022-12-05T17:20:18;67.00;;;36.57;;
6564;SDS011;3316;44.118;27.258;2022-12-05T17:22:44;76.60;;;43.97;;
6564;SDS011;3316;44.118;27.258;2022-12-05T17:25:43;70.90;;;40.63;;
6564;SDS011;3316;44.118;27.258;2022-12-05T17:28:01;66.70;;;40.43;;
6564;SDS011;3316;44.118;27.258;2022-12-05T17:30:27;91.97;;;48.53;;
6564;SDS011;3316;44.118;27.258;2022-12-05T17:32:52;41.73;;;26.53;;
6564;SDS011;3316;44.118;27.258;2022-12-05T17:35:19;47.67;;;25.37;;
6564;SDS011;3316;44.118;27.258;2022-12-05T17:37:46;57.43;;;31.47;;
6564;SDS011;3316;44.118;27.258;2022-12-05T17:40:12;57.90;;;31.47;;
6564;SDS011;3316;44.118;27.258;2022-12-05T17:42:40;60.03;;;34.90;;
6564;SDS011;3316;44.118;27.258;2022-12-05T17:45:10;69.17;;;41.30;;
6564;SDS011;3316;44.118;27.258;2022-12-05T17:47:37;59.67;;;33.73;;
6564;SDS011;3316;44.118;27.258;2022-12-05T17:50:04;54.67;;;29.80;;
6564;SDS011;3316;44.118;27.258;2022-12-05T17:52:30;52.87;;;30.40;;
6564;SDS011;3316;44.118;27.258;2022-12-05T17:54:57;47.77;;;28.30;;
6564;SDS011;3316;44.118;27.258;2022-12-05T17:57:22;45.13;;;27.47;;
6564;SDS011;3316;44.118;27.258;2022-12-05T17:59:47;64.03;;;33.67;;
6564;SDS011;3316;44.118;27.258;2022-12-05T18:02:13;55.10;;;30.70;;
6564;SDS011;3316;44.118;27.258;2022-12-05T18:04:39;49.80;;;27.70;;
6564;SDS011;3316;44.118;27.258;2022-12-05T18:07:05;47.87;;;28.60;;
6564;SDS011;3316;44.118;27.258;2022-12-05T18:09:30;37.83;;;22.43;;
6564;SDS011;3316;44.118;27.258;2022-12-05T18:11:55;42.73;;;24.37;;
6564;SDS011;3316;44.118;27.258;2022-12-05T18:14:21;52.60;;;28.67;;
6564;SDS011;3316;44.118;27.258;2022-12-05T18:16:47;46.10;;;27.07;;